H.b. 1 — WDC2454 — position and weather

sailwx.info

Track history (hours):
 
Tides and Currents Weather Stations Pressure Air Temp Water Temp Dewpoint Dewpoint Depression Visibility Wind Speed Wind Dir Waves Ship Positions

H.b. 1

Owner: Florida Marine, LLC, Mandeville, LA. More information available from US FCC via Universal Licensing System and Coast Guard Vessel Documentation Center.

Last reported at 2017-Sep-19 22:09 UTC. Time now 2017-Sep-21 01:41 UTC.
Position N 29°44' W 095°01'.

Length 23 m; draft 2.9 m.

Type: Other ship. MMSI: 366993420.

Date/timePositionNaut miles runAvg speedWind from/ knotsBaromVisibWave heightAir tempDewpointWater temp
2017-Sep-19 22:09N 29°44' W 095°01'1 5.3
2017-Sep-19 22:00N 29°44' W 095°02'1 0.0
2017-Sep-18 15:12N 29°44' W 095°01'1 4.7
2017-Sep-18 14:59N 29°44' W 095°02'1 0.3
2017-Sep-18 11:21N 29°44' W 095°01'0 0.0
2017-Sep-18 10:51N 29°44' W 095°01'0 0.0
2017-Sep-18 10:27N 29°44' W 095°01'0 0.0
2017-Sep-18 10:00N 29°44' W 095°01'0 0.0
2017-Sep-18 09:15N 29°44' W 095°01'0 0.0
2017-Sep-18 08:48N 29°44' W 095°01'0 0.0
2017-Sep-18 08:30N 29°44' W 095°01'0 0.0
2017-Sep-18 07:57N 29°44' W 095°01'0 0.0
2017-Sep-18 07:24N 29°44' W 095°01'0 0.0
2017-Sep-18 06:57N 29°44' W 095°01'0 0.0
2017-Sep-18 05:51N 29°44' W 095°01'0 0.0
2017-Sep-16 22:26N 29°44' W 095°01'2 4.9
2017-Sep-16 21:59N 29°45' W 095°04'1 0.0
2017-Sep-15 06:10N 29°44' W 095°03'1 6.7
2017-Sep-15 06:00N 29°45' W 095°04'1 0.2
2017-Sep-14 22:20N 29°46' W 095°05'2 5.1
2017-Sep-14 21:58N 29°44' W 095°07'  
2017-Sep-12 13:44N 29°47' W 095°04'1 3.1
2017-Sep-12 13:29N 29°47' W 095°04'4 0.2
2017-Sep-11 19:14N 29°44' W 095°01'4 0.5
2017-Sep-11 12:06N 29°46' W 095°05'2 0.1
2017-Sep-10 04:18N 29°47' W 095°04'2 2.2
2017-Sep-10 03:36N 29°46' W 095°05'0 3.9
2017-Sep-10 03:29N 29°46' W 095°05'  
Track history (hours):
 
Tides and Currents Weather Stations Pressure Air Temp Water Temp Dewpoint Dewpoint Depression Visibility Wind Speed Wind Dir Waves Ship Positions

H.b. 1

Owner: Florida Marine, LLC, Mandeville, LA. More information available from US FCC via Universal Licensing System and Coast Guard Vessel Documentation Center.

Last reported at 2017-Sep-19 22:09 UTC. Time now 2017-Sep-21 01:41 UTC.
Position N 29°44' W 095°01'.

Length 23 m; draft 2.9 m.

Type: Other ship. MMSI: 366993420.

Date/timePositionNaut miles runAvg speedWind from/ knotsBaromVisibWave heightAir tempDewpointWater temp
2017-Sep-19 22:09N 29°44' W 095°01'1 5.3
2017-Sep-19 22:00N 29°44' W 095°02'1 0.0
2017-Sep-18 15:12N 29°44' W 095°01'1 4.7
2017-Sep-18 14:59N 29°44' W 095°02'1 0.3
2017-Sep-18 11:21N 29°44' W 095°01'0 0.0
2017-Sep-18 10:51N 29°44' W 095°01'0 0.0
2017-Sep-18 10:27N 29°44' W 095°01'0 0.0
2017-Sep-18 10:00N 29°44' W 095°01'0 0.0
2017-Sep-18 09:15N 29°44' W 095°01'0 0.0
2017-Sep-18 08:48N 29°44' W 095°01'0 0.0
2017-Sep-18 08:30N 29°44' W 095°01'0 0.0
2017-Sep-18 07:57N 29°44' W 095°01'0 0.0
2017-Sep-18 07:24N 29°44' W 095°01'0 0.0
2017-Sep-18 06:57N 29°44' W 095°01'0 0.0
2017-Sep-18 05:51N 29°44' W 095°01'0 0.0
2017-Sep-16 22:26N 29°44' W 095°01'2 4.9
2017-Sep-16 21:59N 29°45' W 095°04'1 0.0
2017-Sep-15 06:10N 29°44' W 095°03'1 6.7
2017-Sep-15 06:00N 29°45' W 095°04'1 0.2
2017-Sep-14 22:20N 29°46' W 095°05'2 5.1
2017-Sep-14 21:58N 29°44' W 095°07'  
2017-Sep-12 13:44N 29°47' W 095°04'1 3.1
2017-Sep-12 13:29N 29°47' W 095°04'4 0.2
2017-Sep-11 19:14N 29°44' W 095°01'4 0.5
2017-Sep-11 12:06N 29°46' W 095°05'2 0.1
2017-Sep-10 04:18N 29°47' W 095°04'2 2.2
2017-Sep-10 03:36N 29°46' W 095°05'0 3.9
2017-Sep-10 03:29N 29°46' W 095°05'  

Dump ship's entire track history